Time;durP1;ratioP1;P1;durP2;ratioP2;P2;SDS_P1;SDS_P2;PMS_P1;PMS_P2;Temp;Humidity;BMP_temperature;BMP_pressure;BME280_temperature;BME280_humidity;BME280_pressure;Samples;Min_cycle;Max_cycle;Signal;HPM_P1;HPM_P2
2022/04/30 00:01:57;;;;;;;10.77;9.67;;;;;;;-143.37;100.00;62585.38;5031666;28;20804;-78
2022/04/30 00:04:36;;;;;;;10.20;9.20;;;;;;;-143.37;100.00;62585.38;5045257;28;20434;-77
2022/04/30 00:07:13;;;;;;;10.73;9.70;;;;;;;-143.37;100.00;62585.38;5036272;28;20477;-78
2022/04/30 00:09:50;;;;;;;12.80;9.50;;;;;;;-143.37;100.00;62585.38;5060754;28;20447;-77
2022/04/30 00:12:26;;;;;;;11.90;10.80;;;;;;;-143.37;100.00;62585.38;5045923;28;20437;-77
2022/04/30 00:15:03;;;;;;;12.17;11.00;;;;;;;-143.37;100.00;62585.38;5048838;28;20426;-77
2022/04/30 00:17:39;;;;;;;11.40;10.30;;;;;;;-143.37;100.00;62585.38;5048721;28;20449;-78
2022/04/30 00:20:14;;;;;;;11.60;10.40;;;;;;;-143.37;100.00;62585.38;5050263;28;20445;-78
2022/04/30 00:22:50;;;;;;;10.80;9.80;;;;;;;-143.37;100.00;62585.38;5042814;28;20943;-78
2022/04/30 00:25:29;;;;;;;11.80;10.70;;;;;;;-143.37;100.00;62585.38;5044446;28;20995;-78
2022/04/30 00:28:05;;;;;;;11.93;10.73;;;;;;;-143.37;100.00;62585.38;5040550;28;20537;-78
2022/04/30 00:30:43;;;;;;;11.07;10.07;;;;;;;-143.37;100.00;62585.38;5042135;28;20454;-78
2022/04/30 00:33:18;;;;;;;11.67;10.67;;;;;;;-143.37;100.00;62585.38;5045280;28;20900;-78
2022/04/30 00:35:55;;;;;;;11.27;10.07;;;;;;;-143.37;100.00;62585.38;5064153;28;20429;-78
2022/04/30 00:38:30;;;;;;;12.33;11.07;;;;;;;-143.37;100.00;62585.38;5045456;28;20855;-77
2022/04/30 00:41:08;;;;;;;11.30;10.30;;;;;;;-143.37;100.00;62585.38;5046337;28;20852;-77
2022/04/30 00:43:44;;;;;;;14.97;11.00;;;;;;;-143.37;100.00;62585.38;5046924;28;20446;-77
2022/04/30 00:46:23;;;;;;;11.50;10.50;;;;;;;-143.37;100.00;62585.38;5067594;28;20540;-77
2022/04/30 00:49:01;;;;;;;11.80;10.70;;;;;;;-143.37;100.00;62585.38;5028638;28;20504;-78
2022/04/30 00:51:38;;;;;;;11.10;10.00;;;;;;;-143.37;100.00;62585.38;5062069;28;20438;-77
2022/04/30 00:54:14;;;;;;;11.60;10.50;;;;;;;-143.37;100.00;62585.38;5045772;28;20839;-77
2022/04/30 00:56:52;;;;;;;11.40;10.40;;;;;;;-143.37;100.00;62585.38;5043963;28;20462;-77
2022/04/30 00:59:29;;;;;;;11.60;10.40;;;;;;;-143.37;100.00;62585.38;5040852;28;20499;-77
2022/04/30 01:02:04;;;;;;;11.93;10.73;;;;;;;-143.37;100.00;62585.38;5046739;28;20764;-77
2022/04/30 01:04:59;;;;;;;11.87;10.77;;;;;;;-143.37;100.00;62585.38;5053006;28;20834;-77
2022/04/30 01:07:36;;;;;;;10.80;9.77;;;;;;;-143.37;100.00;62585.38;5041591;28;20883;-77
2022/04/30 01:10:12;;;;;;;11.60;10.50;;;;;;;-143.37;100.00;62585.38;5028136;28;20446;-77
2022/04/30 01:12:50;;;;;;;11.63;10.57;;;;;;;-143.37;100.00;62585.38;5042690;28;20949;-77
2022/04/30 01:15:28;;;;;;;12.40;11.10;;;;;;;-143.37;100.00;62585.38;5034914;28;20429;-77
2022/04/30 01:18:04;;;;;;;13.10;11.90;;;;;;;-143.37;100.00;62585.38;5052754;28;20433;-77
2022/04/30 01:20:46;;;;;;;13.43;12.10;;;;;;;-143.37;100.00;62585.38;5030382;28;20545;-77
2022/04/30 01:23:29;;;;;;;16.10;12.90;;;;;;;-143.37;100.00;62585.38;5062878;28;23484;-77
2022/04/30 01:26:06;;;;;;;13.87;12.47;;;;;;;-143.37;100.00;62585.38;5036677;28;20564;-77
2022/04/30 01:28:43;;;;;;;16.30;13.40;;;;;;;-143.37;100.00;62585.38;5044949;28;20442;-77
2022/04/30 01:37:25;;;;;;;17.67;15.13;;;;;;;-143.37;100.00;62585.38;5044901;28;20447;-77
2022/04/30 01:40:04;;;;;;;16.00;14.23;;;;;;;-143.37;100.00;62585.38;5049056;28;20545;-77
2022/04/30 01:42:41;;;;;;;22.07;16.90;;;;;;;-143.37;100.00;62585.38;5050955;28;20459;-77
2022/04/30 01:45:18;;;;;;;20.60;15.27;;;;;;;-143.37;100.00;62585.38;5053634;28;20442;-77
2022/04/30 01:47:56;;;;;;;17.30;14.80;;;;;;;-143.37;100.00;62585.38;5045056;28;20572;-77
2022/04/30 01:50:32;;;;;;;25.63;17.17;;;;;;;-143.37;100.00;62585.38;5031855;28;20441;-77
2022/04/30 01:53:08;;;;;;;20.50;16.37;;;;;;;-143.37;100.00;62585.38;5046936;28;20450;-77
2022/04/30 01:55:45;;;;;;;22.13;16.97;;;;;;;-143.37;100.00;62585.38;5050299;28;20445;-77
2022/04/30 01:58:33;;;;;;;19.30;15.73;;;;;;;-143.37;100.00;62585.38;5029888;28;20442;-77
2022/04/30 02:01:10;;;;;;;19.83;15.53;;;;;;;-143.37;100.00;62585.38;5051398;28;20829;-77
2022/04/30 02:03:48;;;;;;;21.27;16.20;;;;;;;-143.37;100.00;62585.38;5028625;28;20844;-77
2022/04/30 02:06:23;;;;;;;22.20;16.00;;;;;;;-143.37;100.00;62585.38;5033477;28;20473;-77
2022/04/30 02:08:59;;;;;;;20.07;16.93;;;;;;;-143.37;100.00;62585.38;5031701;28;20441;-77
2022/04/30 02:11:36;;;;;;;20.70;15.80;;;;;;;-143.37;100.00;62585.38;5034452;28;20798;-77
2022/04/30 02:14:17;;;;;;;20.50;16.10;;;;;;;-143.37;100.00;62585.38;5067071;28;20446;-77
2022/04/30 02:16:55;;;;;;;20.10;15.60;;;;;;;-143.37;100.00;62585.38;5033108;28;20449;-78
2022/04/30 02:20:18;;;;;;;21.67;15.80;;;;;;;-143.37;100.00;62585.38;5049175;28;20421;-77
2022/04/30 02:22:30;;;;;;;19.50;16.30;;;;;;;-143.37;100.00;62585.38;5048455;28;20786;-77
2022/04/30 02:25:09;;;;;;;20.40;17.77;;;;;;;-143.37;100.00;62585.38;5045664;28;20450;-77
2022/04/30 02:27:48;;;;;;;18.57;15.70;;;;;;;-143.37;100.00;62585.38;5050024;28;20446;-77
2022/04/30 02:30:26;;;;;;;20.53;15.83;;;;;;;-143.37;100.00;62585.38;5042776;28;20929;-77
2022/04/30 02:33:05;;;;;;;20.03;15.50;;;;;;;-143.37;100.00;62585.38;5046104;28;20835;-77
2022/04/30 02:35:44;;;;;;;20.60;16.03;;;;;;;-143.37;100.00;62585.38;5045822;28;20826;-77
2022/04/30 02:38:20;;;;;;;22.80;17.83;;;;;;;-143.37;100.00;62585.38;5045620;28;20445;-77
2022/04/30 02:40:58;;;;;;;23.27;15.63;;;;;;;-143.37;100.00;62585.38;5047062;28;20430;-77
2022/04/30 02:43:35;;;;;;;20.33;15.43;;;;;;;-143.37;100.00;62585.38;5029101;28;20457;-77
2022/04/30 02:46:13;;;;;;;21.63;16.37;;;;;;;-143.37;100.00;62585.38;5030272;28;20462;-77
2022/04/30 02:48:49;;;;;;;17.10;14.40;;;;;;;-143.37;100.00;62585.38;5062498;28;20442;-77
2022/04/30 02:51:25;;;;;;;17.43;14.80;;;;;;;-143.37;100.00;62585.38;5046162;28;20437;-77
2022/04/30 02:54:00;;;;;;;20.23;15.10;;;;;;;-143.37;100.00;62585.38;5049425;28;20978;-77
2022/04/30 02:56:45;;;;;;;17.20;14.60;;;;;;;-143.37;100.00;62585.38;5033990;28;20430;-77
2022/04/30 03:02:22;;;;;;;20.37;15.13;;;;;;;-143.37;100.00;62585.38;5030812;28;21122;-77
2022/04/30 03:05:02;;;;;;;17.37;14.30;;;;;;;-143.37;100.00;62585.38;5033296;28;20525;-77
2022/04/30 03:07:38;;;;;;;19.57;15.53;;;;;;;-143.37;100.00;62585.38;5063891;28;20861;-77
2022/04/30 03:10:13;;;;;;;20.97;13.87;;;;;;;-143.37;100.00;62585.38;5050436;28;20429;-77
2022/04/30 03:12:49;;;;;;;18.27;16.23;;;;;;;-143.37;100.00;62585.38;5029567;28;20453;-77
2022/04/30 03:15:29;;;;;;;22.33;15.27;;;;;;;-143.37;100.00;62585.38;5040847;28;20509;-77
2022/04/30 03:23:55;;;;;;;23.13;16.07;;;;;;;-143.37;100.00;62585.38;5056946;28;21001;-77
2022/04/30 03:26:31;;;;;;;20.50;15.90;;;;;;;-143.37;100.00;62585.38;5044830;28;20486;-77
2022/04/30 03:29:07;;;;;;;20.30;15.70;;;;;;;-143.37;100.00;62585.38;5026474;28;20500;-77
2022/04/30 03:31:44;;;;;;;23.33;16.97;;;;;;;-143.37;100.00;62585.38;5047583;28;20694;-77
2022/04/30 03:34:19;;;;;;;21.20;16.57;;;;;;;-143.37;100.00;62585.38;5062743;28;20542;-77
2022/04/30 03:36:55;;;;;;;20.63;15.70;;;;;;;-143.37;100.00;62585.38;5027430;28;20446;-77
2022/04/30 03:39:31;;;;;;;19.80;15.40;;;;;;;-143.37;100.00;62585.38;5042408;28;20429;-77
2022/04/30 03:42:08;;;;;;;25.90;17.20;;;;;;;-143.37;100.00;62585.38;5047253;28;20446;-77
2022/04/30 03:44:43;;;;;;;23.37;17.50;;;;;;;-143.37;100.00;62585.38;5034116;28;20468;-77
2022/04/30 03:47:21;;;;;;;23.00;16.50;;;;;;;-143.37;100.00;62585.38;5047832;28;20572;-77
2022/04/30 03:49:56;;;;;;;25.37;17.60;;;;;;;-143.37;100.00;62585.38;5046435;28;20528;-77
2022/04/30 03:52:33;;;;;;;25.20;19.53;;;;;;;-143.37;100.00;62585.38;5045534;28;20441;-77
2022/04/30 03:55:10;;;;;;;28.17;21.47;;;;;;;-143.37;100.00;62585.38;5030897;28;20442;-77
2022/04/30 03:57:45;;;;;;;30.97;21.27;;;;;;;-143.37;100.00;62585.38;5041476;28;20443;-77
2022/04/30 04:00:21;;;;;;;27.90;19.33;;;;;;;-143.37;100.00;62585.38;5043246;28;20534;-77
2022/04/30 04:02:59;;;;;;;22.97;19.47;;;;;;;-143.37;100.00;62585.38;5046756;28;20453;-77
2022/04/30 04:05:34;;;;;;;26.47;20.17;;;;;;;-143.37;100.00;62585.38;5049061;28;20525;-77
2022/04/30 04:08:12;;;;;;;26.97;19.80;;;;;;;-143.37;100.00;62585.38;5026024;28;20811;-77
2022/04/30 04:10:48;;;;;;;26.60;19.90;;;;;;;-143.37;100.00;62585.38;5008159;28;20529;-77
2022/04/30 04:19:12;;;;;;;25.80;20.53;;;;;;;-143.37;100.00;62585.38;5025546;28;20534;-77
2022/04/30 04:21:48;;;;;;;24.17;18.97;;;;;;;-143.37;100.00;62585.38;5025151;28;20837;-77
2022/04/30 04:27:36;;;;;;;27.10;21.10;;;;;;;-143.37;100.00;62585.38;5010533;28;20459;-76
2022/04/30 04:30:14;;;;;;;24.67;21.33;;;;;;;-143.37;100.00;62585.38;5041424;28;20446;-77
2022/04/30 04:32:50;;;;;;;25.83;20.40;;;;;;;-143.37;100.00;62585.38;5023096;28;20796;-76
2022/04/30 04:35:27;;;;;;;25.30;21.03;;;;;;;-143.37;100.00;62585.38;5023532;28;21059;-77
2022/04/30 04:38:03;;;;;;;28.73;21.80;;;;;;;-143.37;100.00;62585.38;5023614;28;20448;-77
2022/04/30 04:40:38;;;;;;;29.50;21.83;;;;;;;-143.37;100.00;62585.38;5027303;28;20431;-76
2022/04/30 04:43:14;;;;;;;29.17;21.63;;;;;;;-143.37;100.00;62585.38;5006773;28;20439;-77
2022/04/30 04:45:50;;;;;;;30.50;22.20;;;;;;;-143.37;100.00;62585.38;5039399;28;20454;-77
2022/04/30 04:48:25;;;;;;;30.07;22.93;;;;;;;-143.37;100.00;62585.38;5019219;28;20841;-77
2022/04/30 04:51:02;;;;;;;24.97;20.00;;;;;;;-143.37;100.00;62585.38;5008518;28;20933;-77
2022/04/30 04:53:38;;;;;;;29.00;22.23;;;;;;;-143.37;100.00;62585.38;5011481;28;20450;-77
2022/04/30 04:56:14;;;;;;;26.70;22.00;;;;;;;-143.37;100.00;62585.38;5013316;28;20438;-77
2022/04/30 04:58:50;;;;;;;25.40;21.27;;;;;;;-143.37;100.00;62585.38;5037887;28;20454;-79
2022/04/30 05:01:31;;;;;;;24.67;19.70;;;;;;;-143.37;100.00;62585.38;5027300;28;20773;-77
2022/04/30 05:04:08;;;;;;;25.77;20.73;;;;;;;-143.37;100.00;62585.38;5008033;28;20432;-78
2022/04/30 05:06:45;;;;;;;26.57;20.27;;;;;;;-143.37;100.00;62585.38;5018776;28;20470;-78
2022/04/30 05:09:21;;;;;;;26.07;20.00;;;;;;;-143.37;100.00;62585.38;5064726;28;20469;-78
2022/04/30 05:11:57;;;;;;;23.77;20.67;;;;;;;-143.37;100.00;62585.38;5048578;28;20449;-78
2022/04/30 05:14:33;;;;;;;24.23;19.63;;;;;;;-143.37;100.00;62585.38;5046833;28;20442;-79
2022/04/30 05:17:08;;;;;;;24.80;20.03;;;;;;;-143.37;100.00;62585.38;5042631;28;20933;-79
2022/04/30 05:19:44;;;;;;;25.00;20.77;;;;;;;-143.37;100.00;62585.38;5061057;28;20495;-79
2022/04/30 05:22:21;;;;;;;24.80;20.60;;;;;;;-143.37;100.00;62585.38;5043422;28;20971;-79
2022/04/30 05:24:57;;;;;;;31.43;21.53;;;;;;;-143.37;100.00;62585.38;5058479;28;20446;-79
2022/04/30 05:27:33;;;;;;;29.73;21.57;;;;;;;-143.37;100.00;62585.38;5026306;28;20508;-78
2022/04/30 05:30:09;;;;;;;27.90;21.10;;;;;;;-143.37;100.00;62585.38;5038882;28;20447;-78
2022/04/30 05:32:45;;;;;;;27.80;22.10;;;;;;;-143.37;100.00;62585.38;5040829;28;20474;-78
2022/04/30 05:35:20;;;;;;;23.93;19.43;;;;;;;-143.37;100.00;62585.38;5044059;28;20433;-78
2022/04/30 05:37:57;;;;;;;27.33;22.07;;;;;;;-143.37;100.00;62585.38;5043338;28;20809;-78
2022/04/30 05:40:33;;;;;;;29.17;20.23;;;;;;;-143.37;100.00;62585.38;5045354;28;20524;-79
2022/04/30 05:43:08;;;;;;;26.20;20.67;;;;;;;-143.37;100.00;62585.38;5041665;28;20454;-78
2022/04/30 05:45:44;;;;;;;23.90;19.20;;;;;;;-143.37;100.00;62585.38;5041836;28;20441;-78
2022/04/30 05:48:19;;;;;;;24.63;19.93;;;;;;;-143.37;100.00;62585.38;5044876;28;20482;-78
2022/04/30 05:50:55;;;;;;;27.77;23.13;;;;;;;-143.37;100.00;62585.38;5040888;28;20801;-78
2022/04/30 05:53:32;;;;;;;26.67;22.50;;;;;;;-143.37;100.00;62585.38;5041599;28;20454;-78
2022/04/30 05:56:08;;;;;;;24.33;21.13;;;;;;;-143.37;100.00;62585.38;5044147;28;20447;-79
2022/04/30 05:58:46;;;;;;;26.10;20.97;;;;;;;-143.37;100.00;62585.38;5044107;28;20966;-78
2022/04/30 06:01:27;;;;;;;27.60;21.40;;;;;;;-143.37;100.00;62585.38;5067035;28;20434;-79
2022/04/30 06:04:05;;;;;;;24.23;20.07;;;;;;;-143.37;100.00;62585.38;5048566;28;20490;-79
2022/04/30 06:06:50;;;;;;;34.20;22.67;;;;;;;-143.37;100.00;62585.38;5045501;28;20482;-79
2022/04/30 06:09:27;;;;;;;25.93;20.90;;;;;;;-143.37;100.00;62585.38;5048629;28;20441;-79
2022/04/30 06:12:02;;;;;;;24.47;20.70;;;;;;;-143.37;100.00;62585.38;5068089;28;20994;-79
2022/04/30 06:14:41;;;;;;;26.60;21.80;;;;;;;-143.37;100.00;62585.38;5049945;28;20441;-79
2022/04/30 06:17:28;;;;;;;24.50;20.93;;;;;;;-143.37;100.00;62585.38;5069578;28;20458;-79
2022/04/30 06:20:04;;;;;;;30.00;21.83;;;;;;;-143.37;100.00;62585.38;5032589;28;20453;-79
2022/04/30 06:22:40;;;;;;;27.03;20.03;;;;;;;-143.37;100.00;62585.38;5049312;28;20442;-79
2022/04/30 06:25:20;;;;;;;27.13;20.10;;;;;;;-143.37;100.00;62585.38;5060719;28;20466;-78
2022/04/30 06:27:57;;;;;;;26.10;20.93;;;;;;;-143.37;100.00;62585.38;5069485;28;20477;-79
2022/04/30 06:30:35;;;;;;;24.73;18.50;;;;;;;-143.37;100.00;62585.38;5068539;28;20433;-79
2022/04/30 06:33:11;;;;;;;28.90;20.20;;;;;;;-143.37;100.00;62585.38;5050049;28;20454;-79
2022/04/30 06:35:48;;;;;;;25.97;19.93;;;;;;;-143.37;100.00;62585.38;5049973;28;20427;-79
2022/04/30 06:38:23;;;;;;;26.37;21.00;;;;;;;-143.37;100.00;62585.38;5033302;28;20439;-79
2022/04/30 06:41:00;;;;;;;28.57;22.17;;;;;;;-143.37;100.00;62585.38;5032851;28;20968;-79
2022/04/30 06:43:36;;;;;;;23.03;19.17;;;;;;;-143.37;100.00;62585.38;5039406;28;20516;-79
2022/04/30 06:46:12;;;;;;;25.50;20.30;;;;;;;-143.37;100.00;62585.38;5054890;28;20460;-79
2022/04/30 06:48:48;;;;;;;23.90;18.90;;;;;;;-143.37;100.00;62585.38;5049694;28;21027;-79
2022/04/30 06:51:24;;;;;;;27.40;18.57;;;;;;;-143.37;100.00;62585.38;5048940;28;20849;-79
2022/04/30 06:57:11;;;;;;;27.10;18.90;;;;;;;-143.37;100.00;62585.38;5050320;28;20525;-79
2022/04/30 06:59:51;;;;;;;24.27;18.90;;;;;;;-143.37;100.00;62585.38;5049916;28;20441;-79
2022/04/30 07:02:31;;;;;;;26.57;20.00;;;;;;;-143.37;100.00;62585.38;5030954;28;20789;-79
2022/04/30 07:05:08;;;;;;;20.40;17.67;;;;;;;-143.37;100.00;62585.38;5049748;28;20439;-79
2022/04/30 07:07:43;;;;;;;20.70;17.90;;;;;;;-143.37;100.00;62585.38;5052622;28;20531;-79
2022/04/30 07:10:19;;;;;;;21.67;18.53;;;;;;;-143.37;100.00;62585.38;5049047;28;20872;-79
2022/04/30 07:12:56;;;;;;;21.70;18.57;;;;;;;-143.37;100.00;62585.38;5057621;28;20961;-79
2022/04/30 07:15:31;;;;;;;22.43;18.33;;;;;;;-143.37;100.00;62585.38;5061787;28;20781;-79
2022/04/30 07:18:07;;;;;;;25.10;19.47;;;;;;;-143.37;100.00;62585.38;5047825;28;20482;-79
2022/04/30 07:20:43;;;;;;;22.20;18.50;;;;;;;-143.37;100.00;62585.38;5027883;28;20449;-79
2022/04/30 07:23:18;;;;;;;22.60;17.77;;;;;;;-143.37;100.00;62585.38;5033057;28;20473;-79
2022/04/30 07:25:56;;;;;;;23.87;20.43;;;;;;;-143.37;100.00;62585.38;5029181;28;20537;-79
2022/04/30 07:28:35;;;;;;;23.00;18.33;;;;;;;-143.37;100.00;62585.38;5047906;28;20461;-79
2022/04/30 07:31:23;;;;;;;19.57;17.43;;;;;;;-143.37;100.00;62585.38;5044613;28;20442;-79
2022/04/30 07:34:00;;;;;;;23.97;17.37;;;;;;;-143.37;100.00;62585.38;5048191;28;20788;-80
2022/04/30 07:36:36;;;;;;;23.37;17.80;;;;;;;-143.37;100.00;62585.38;5070255;28;20441;-80
2022/04/30 07:39:12;;;;;;;23.30;17.27;;;;;;;-143.37;100.00;62585.38;5056774;28;20492;-79
2022/04/30 07:41:49;;;;;;;20.90;17.37;;;;;;;-143.37;100.00;62585.38;5066034;28;20437;-79
2022/04/30 07:44:30;;;;;;;23.20;18.67;;;;;;;-143.37;100.00;62585.38;5064196;28;20445;-80
2022/04/30 07:47:06;;;;;;;23.83;18.60;;;;;;;-143.37;100.00;62585.38;5051495;28;20446;-80
2022/04/30 07:49:42;;;;;;;21.80;17.77;;;;;;;-143.37;100.00;62585.38;5047304;28;20808;-79
2022/04/30 07:52:17;;;;;;;23.77;17.70;;;;;;;-143.37;100.00;62585.38;5047471;28;20445;-80
2022/04/30 07:54:55;;;;;;;24.93;17.73;;;;;;;-143.37;100.00;62585.38;5061115;28;20438;-80
2022/04/30 07:57:32;;;;;;;20.70;16.50;;;;;;;-143.37;100.00;62585.38;5044290;28;20437;-79
2022/04/30 08:00:11;;;;;;;25.03;19.07;;;;;;;-143.37;100.00;62585.38;5049886;28;20445;-80
2022/04/30 08:02:48;;;;;;;22.43;19.00;;;;;;;-143.37;100.00;62585.38;5043982;28;20473;-79
2022/04/30 08:05:37;;;;;;;22.47;18.13;;;;;;;-143.37;100.00;62585.38;5059012;28;20462;-80
2022/04/30 08:08:15;;;;;;;21.73;18.37;;;;;;;-143.37;100.00;62585.38;5044328;28;20957;-80
2022/04/30 08:10:51;;;;;;;20.83;18.13;;;;;;;-143.37;100.00;62585.38;5024161;28;20835;-80
2022/04/30 08:13:35;;;;;;;21.60;16.97;;;;;;;-143.37;100.00;62585.38;5044041;28;20900;-80
2022/04/30 08:16:14;;;;;;;24.20;19.70;;;;;;;-143.37;100.00;62585.38;5030386;28;20863;-80
2022/04/30 08:18:53;;;;;;;22.73;17.80;;;;;;;-143.37;100.00;62585.38;5015398;28;20450;-80
2022/04/30 08:21:31;;;;;;;22.07;19.33;;;;;;;-143.37;100.00;62585.38;5031309;28;20439;-80
2022/04/30 08:24:07;;;;;;;23.60;20.10;;;;;;;-143.37;100.00;62585.38;5029719;28;20454;-80
2022/04/30 08:26:44;;;;;;;21.90;18.43;;;;;;;-143.37;100.00;62585.38;5026560;28;20537;-80
2022/04/30 08:30:01;;;;;;;19.57;16.10;;;;;;;-143.37;100.00;62585.38;5042975;28;20474;-80
2022/04/30 08:33:01;;;;;;;19.87;16.70;;;;;;;-143.37;100.00;62585.38;5007484;28;20456;-80
2022/04/30 08:35:36;;;;;;;21.73;18.30;;;;;;;-143.37;100.00;62585.38;5029239;28;20443;-80
2022/04/30 08:38:12;;;;;;;21.10;17.70;;;;;;;-143.37;100.00;62585.38;5025436;28;20446;-80
2022/04/30 08:40:48;;;;;;;20.93;16.77;;;;;;;-143.37;100.00;62585.38;5027206;28;20987;-80
2022/04/30 08:43:24;;;;;;;19.30;17.20;;;;;;;-143.37;100.00;62585.38;5030260;28;20442;-80
2022/04/30 08:46:01;;;;;;;19.90;16.40;;;;;;;-143.37;100.00;62585.38;5029009;28;20474;-80
2022/04/30 08:48:38;;;;;;;19.20;14.50;;;;;;;-143.37;100.00;62585.38;5012486;28;20466;-80
2022/04/30 08:51:16;;;;;;;19.33;16.23;;;;;;;-143.37;100.00;62585.38;5008286;28;20869;-80
2022/04/30 08:53:51;;;;;;;21.80;15.23;;;;;;;-143.37;100.00;62585.38;5015427;28;20454;-79
2022/04/30 08:56:31;;;;;;;17.67;15.07;;;;;;;-143.37;100.00;62585.38;5030407;28;20805;-80
2022/04/30 08:59:08;;;;;;;19.07;15.50;;;;;;;-143.37;100.00;62585.38;5040109;28;20442;-80
2022/04/30 09:01:46;;;;;;;17.00;15.10;;;;;;;-143.37;100.00;62585.38;5025673;28;20430;-80
2022/04/30 09:04:23;;;;;;;15.50;13.90;;;;;;;-143.37;100.00;62585.38;5030269;28;20435;-80
2022/04/30 09:06:58;;;;;;;18.17;14.87;;;;;;;-143.37;100.00;62585.38;5021904;28;20480;-80
2022/04/30 09:09:35;;;;;;;16.40;14.47;;;;;;;-143.37;100.00;62585.38;5027301;28;21063;-80
2022/04/30 09:12:13;;;;;;;16.40;14.27;;;;;;;-143.37;100.00;62585.38;5047838;28;20549;-80
2022/04/30 09:14:49;;;;;;;16.40;14.70;;;;;;;-143.37;100.00;62585.38;5046416;28;20438;-80
2022/04/30 09:17:27;;;;;;;15.87;14.20;;;;;;;-143.37;100.00;62585.38;5065581;28;20446;-80
2022/04/30 09:20:05;;;;;;;15.20;13.40;;;;;;;-143.37;100.00;62585.38;5040098;28;20445;-80
2022/04/30 09:22:41;;;;;;;16.53;13.67;;;;;;;-143.37;100.00;62585.38;5056180;28;20446;-80
2022/04/30 09:25:16;;;;;;;15.40;13.30;;;;;;;-143.37;100.00;62585.38;5044480;28;20519;-80
2022/04/30 09:27:56;;;;;;;15.70;14.00;;;;;;;-143.37;100.00;62585.38;5047138;28;20497;-80
2022/04/30 09:30:32;;;;;;;15.07;13.27;;;;;;;-143.37;100.00;62585.38;5046408;28;20446;-80
2022/04/30 09:33:09;;;;;;;15.00;13.50;;;;;;;-143.37;100.00;62585.38;5030153;28;20524;-80
2022/04/30 09:38:39;;;;;;;16.10;13.97;;;;;;;-143.37;100.00;62585.38;5067988;28;20769;-80
2022/04/30 09:41:15;;;;;;;15.27;13.67;;;;;;;-143.37;100.00;62585.38;5065990;28;20453;-80
2022/04/30 09:44:04;;;;;;;15.23;13.17;;;;;;;-143.37;100.00;62585.38;5051570;28;20446;-80
2022/04/30 09:46:41;;;;;;;13.63;12.20;;;;;;;-143.37;100.00;62585.38;5032138;28;20435;-80
2022/04/30 09:55:07;;;;;;;14.10;12.63;;;;;;;-143.37;100.00;62585.38;5032595;28;20454;-80
2022/04/30 09:57:43;;;;;;;13.07;11.60;;;;;;;-143.37;100.00;62585.38;5035212;28;20488;-80
2022/04/30 10:00:19;;;;;;;14.17;12.43;;;;;;;-143.37;100.00;62585.38;5049840;28;20429;-80
2022/04/30 10:02:59;;;;;;;12.77;11.40;;;;;;;-143.37;100.00;62585.38;5048295;28;20922;-80
2022/04/30 10:05:36;;;;;;;12.03;10.73;;;;;;;-143.37;100.00;62585.38;5050328;28;20438;-80
2022/04/30 10:08:13;;;;;;;10.93;9.73;;;;;;;-143.37;100.00;62585.38;5030808;28;20466;-81
2022/04/30 10:10:52;;;;;;;12.67;10.20;;;;;;;-143.37;100.00;62585.38;5029567;28;20452;-80
2022/04/30 10:13:34;;;;;;;11.70;10.30;;;;;;;-143.37;100.00;62585.38;5015680;28;20521;-80
2022/04/30 10:16:13;;;;;;;11.83;10.40;;;;;;;-143.37;100.00;62585.38;5031166;28;20724;-78
2022/04/30 10:19:10;;;;;;;10.93;9.70;;;;;;;-143.37;100.00;62585.38;5046078;28;20992;-79
2022/04/30 10:21:46;;;;;;;11.27;9.80;;;;;;;-143.37;100.00;62585.38;5029749;28;20431;-79
2022/04/30 10:24:33;;;;;;;11.60;10.37;;;;;;;-143.37;100.00;62585.38;5040892;28;20451;-78
2022/04/30 10:27:09;;;;;;;14.33;11.60;;;;;;;-143.37;100.00;62585.38;5042736;28;20475;-79
2022/04/30 10:29:57;;;;;;;13.00;11.67;;;;;;;-143.37;100.00;62585.38;5048353;28;20573;-79
2022/04/30 10:32:34;;;;;;;13.23;11.57;;;;;;;-143.37;100.00;62585.38;5019212;28;20436;-79
2022/04/30 10:35:10;;;;;;;14.13;12.73;;;;;;;-143.37;100.00;62585.38;5025633;28;20455;-79
2022/04/30 10:37:45;;;;;;;13.80;12.20;;;;;;;-143.37;100.00;62585.38;5025269;28;20459;-79
2022/04/30 10:40:22;;;;;;;12.73;11.43;;;;;;;-143.37;100.00;62585.38;5029212;28;20760;-79
2022/04/30 10:42:58;;;;;;;13.50;12.10;;;;;;;-143.37;100.00;62585.38;5028692;28;20447;-79
2022/04/30 10:45:33;;;;;;;14.03;11.77;;;;;;;-143.37;100.00;62585.38;5023999;28;20443;-79
2022/04/30 10:48:10;;;;;;;13.53;11.70;;;;;;;-143.37;100.00;62585.38;5046073;28;20460;-80
2022/04/30 10:50:47;;;;;;;12.53;11.20;;;;;;;-143.37;100.00;62585.38;5033505;28;20937;-79
2022/04/30 10:53:25;;;;;;;13.50;12.00;;;;;;;-143.37;100.00;62585.38;5030606;28;20474;-79
2022/04/30 10:56:03;;;;;;;14.60;12.70;;;;;;;-143.37;100.00;62585.38;5030684;28;20569;-80
2022/04/30 10:58:41;;;;;;;12.90;11.50;;;;;;;-143.37;100.00;62585.38;5031572;28;20834;-79
2022/04/30 11:01:19;;;;;;;14.10;12.60;;;;;;;-143.37;100.00;62585.38;5029718;28;20466;-79
2022/04/30 11:03:56;;;;;;;13.87;11.97;;;;;;;-143.37;100.00;62585.38;5027437;28;20447;-79
2022/04/30 11:06:33;;;;;;;16.43;13.10;;;;;;;-143.37;100.00;62585.38;5042510;28;20470;-79
2022/04/30 11:09:09;;;;;;;14.67;12.40;;;;;;;-143.37;100.00;62585.38;5047231;28;20469;-79
2022/04/30 11:11:48;;;;;;;15.20;13.60;;;;;;;-143.37;100.00;62585.38;5036701;28;20532;-80
2022/04/30 11:14:24;;;;;;;11.73;10.10;;;;;;;-143.37;100.00;62585.38;5032296;28;20948;-80
2022/04/30 11:17:00;;;;;;;9.53;8.63;;;;;;;-143.37;100.00;62585.38;5047806;28;20473;-80
2022/04/30 11:19:40;;;;;;;8.13;7.33;;;;;;;-143.37;100.00;62585.38;5046721;28;20442;-79
2022/04/30 11:22:17;;;;;;;8.23;7.43;;;;;;;-143.37;100.00;62585.38;5067663;28;20815;-80
2022/04/30 11:24:57;;;;;;;9.40;8.50;;;;;;;-143.37;100.00;62585.38;5047731;28;20442;-80
2022/04/30 11:27:34;;;;;;;8.50;7.60;;;;;;;-143.37;100.00;62585.38;5035110;28;20438;-80
2022/04/30 11:30:11;;;;;;;6.70;5.93;;;;;;;-143.37;100.00;62585.38;5050114;28;20469;-80
2022/04/30 11:32:48;;;;;;;8.93;6.30;;;;;;;-143.37;100.00;62585.38;5047297;28;20437;-80
2022/04/30 11:35:24;;;;;;;7.57;6.50;;;;;;;-143.37;100.00;62585.38;5036074;28;20438;-80
2022/04/30 11:38:00;;;;;;;7.97;6.67;;;;;;;-143.37;100.00;62585.38;5044987;28;20438;-80
2022/04/30 11:40:36;;;;;;;7.60;6.67;;;;;;;-143.37;100.00;62585.38;5031899;28;20450;-80
2022/04/30 11:43:13;;;;;;;6.77;6.00;;;;;;;-143.37;100.00;62585.38;5044475;28;20448;-80
2022/04/30 11:46:00;;;;;;;7.40;6.70;;;;;;;-143.37;100.00;62585.38;5047360;28;20478;-79
2022/04/30 11:48:38;;;;;;;7.23;6.53;;;;;;;-143.37;100.00;62585.38;5046775;28;20470;-79
2022/04/30 11:51:14;;;;;;;7.90;7.10;;;;;;;-143.37;100.00;62585.38;5032104;28;20449;-80
2022/04/30 11:53:49;;;;;;;6.93;6.23;;;;;;;-143.37;100.00;62585.38;5032668;28;20512;-80
2022/04/30 11:56:25;;;;;;;6.50;5.90;;;;;;;-143.37;100.00;62585.38;5033965;28;20549;-79
2022/04/30 11:59:02;;;;;;;6.83;6.23;;;;;;;-143.37;100.00;62585.38;5026868;28;20445;-78
2022/04/30 12:01:40;;;;;;;8.20;6.60;;;;;;;-143.37;100.00;62585.38;5065534;28;20437;-78
2022/04/30 12:04:16;;;;;;;7.70;6.83;;;;;;;-143.37;100.00;62585.38;5055826;28;20454;-79
2022/04/30 12:06:59;;;;;;;9.90;8.30;;;;;;;-143.37;100.00;62585.38;5041785;28;20470;-79
2022/04/30 12:09:37;;;;;;;8.13;7.33;;;;;;;-143.37;100.00;62585.38;5027055;28;20573;-79
2022/04/30 12:12:19;;;;;;;7.27;6.57;;;;;;;-143.37;100.00;62585.38;5026040;28;20459;-79
2022/04/30 12:14:57;;;;;;;7.97;7.10;;;;;;;-143.37;100.00;62585.38;5042982;28;20556;-79
2022/04/30 12:17:35;;;;;;;7.90;7.10;;;;;;;-143.37;100.00;62585.38;5044881;28;20441;-79